sensor_id;sensor_type;location;lat;lon;timestamp;P1;durP1;ratioP1;P2;durP2;ratioP2
23280;SDS011;11809;56.390;-3.266;2022-10-23T00:01:30;2.28;;;1.00;;
23280;SDS011;11809;56.390;-3.266;2022-10-23T00:04:07;2.30;;;1.00;;
23280;SDS011;11809;56.390;-3.266;2022-10-23T00:06:38;1.73;;;0.98;;
23280;SDS011;11809;56.390;-3.266;2022-10-23T00:09:06;3.58;;;1.20;;
23280;SDS011;11809;56.390;-3.266;2022-10-23T00:11:34;2.95;;;0.80;;
23280;SDS011;11809;56.390;-3.266;2022-10-23T00:14:03;2.15;;;0.88;;
23280;SDS011;11809;56.390;-3.266;2022-10-23T00:16:31;3.08;;;0.85;;
23280;SDS011;11809;56.390;-3.266;2022-10-23T00:18:59;1.65;;;0.80;;
23280;SDS011;11809;56.390;-3.266;2022-10-23T00:21:26;1.95;;;0.85;;
23280;SDS011;11809;56.390;-3.266;2022-10-23T00:23:53;1.77;;;0.90;;
23280;SDS011;11809;56.390;-3.266;2022-10-23T00:26:20;2.85;;;1.10;;
23280;SDS011;11809;56.390;-3.266;2022-10-23T00:28:48;1.25;;;0.70;;
23280;SDS011;11809;56.390;-3.266;2022-10-23T00:31:17;1.73;;;0.80;;
23280;SDS011;11809;56.390;-3.266;2022-10-23T00:33:46;2.42;;;1.00;;
23280;SDS011;11809;56.390;-3.266;2022-10-23T00:36:13;1.13;;;0.88;;
23280;SDS011;11809;56.390;-3.266;2022-10-23T00:38:41;3.22;;;1.02;;
23280;SDS011;11809;56.390;-3.266;2022-10-23T00:41:10;1.63;;;0.70;;
23280;SDS011;11809;56.390;-3.266;2022-10-23T00:43:59;6.05;;;1.20;;
23280;SDS011;11809;56.390;-3.266;2022-10-23T00:46:44;1.15;;;0.77;;
23280;SDS011;11809;56.390;-3.266;2022-10-23T00:49:11;1.10;;;0.70;;
23280;SDS011;11809;56.390;-3.266;2022-10-23T00:51:39;3.40;;;0.70;;
23280;SDS011;11809;56.390;-3.266;2022-10-23T00:54:18;2.72;;;0.73;;
23280;SDS011;11809;56.390;-3.266;2022-10-23T00:56:50;1.08;;;0.63;;
23280;SDS011;11809;56.390;-3.266;2022-10-23T00:59:20;2.13;;;0.90;;
23280;SDS011;11809;56.390;-3.266;2022-10-23T01:01:47;1.58;;;1.00;;
23280;SDS011;11809;56.390;-3.266;2022-10-23T01:04:14;1.33;;;0.80;;
23280;SDS011;11809;56.390;-3.266;2022-10-23T01:09:36;2.25;;;0.93;;
23280;SDS011;11809;56.390;-3.266;2022-10-23T01:15:41;1.25;;;0.73;;
23280;SDS011;11809;56.390;-3.266;2022-10-23T01:18:21;1.17;;;0.82;;
23280;SDS011;11809;56.390;-3.266;2022-10-23T01:20:52;1.50;;;0.80;;
23280;SDS011;11809;56.390;-3.266;2022-10-23T01:35:05;2.33;;;0.80;;
23280;SDS011;11809;56.390;-3.266;2022-10-23T01:37:44;1.60;;;0.90;;
23280;SDS011;11809;56.390;-3.266;2022-10-23T01:40:26;2.08;;;0.80;;
23280;SDS011;11809;56.390;-3.266;2022-10-23T01:43:00;1.67;;;0.77;;
23280;SDS011;11809;56.390;-3.266;2022-10-23T01:45:35;2.50;;;0.80;;
23280;SDS011;11809;56.390;-3.266;2022-10-23T01:48:05;1.17;;;0.70;;
23280;SDS011;11809;56.390;-3.266;2022-10-23T01:50:37;2.67;;;0.82;;
23280;SDS011;11809;56.390;-3.266;2022-10-23T01:53:05;1.15;;;0.82;;
23280;SDS011;11809;56.390;-3.266;2022-10-23T01:55:32;1.45;;;0.90;;
23280;SDS011;11809;56.390;-3.266;2022-10-23T01:58:02;1.98;;;1.02;;
23280;SDS011;11809;56.390;-3.266;2022-10-23T02:00:34;1.50;;;0.75;;
23280;SDS011;11809;56.390;-3.266;2022-10-23T02:03:04;1.35;;;0.70;;
23280;SDS011;11809;56.390;-3.266;2022-10-23T02:05:34;3.63;;;0.82;;
23280;SDS011;11809;56.390;-3.266;2022-10-23T02:08:01;2.13;;;0.80;;
23280;SDS011;11809;56.390;-3.266;2022-10-23T02:10:43;2.15;;;0.82;;
23280;SDS011;11809;56.390;-3.266;2022-10-23T02:13:29;1.42;;;0.80;;
23280;SDS011;11809;56.390;-3.266;2022-10-23T02:16:06;2.25;;;1.00;;
23280;SDS011;11809;56.390;-3.266;2022-10-23T02:18:44;2.20;;;0.90;;
23280;SDS011;11809;56.390;-3.266;2022-10-23T02:21:26;2.47;;;1.10;;
23280;SDS011;11809;56.390;-3.266;2022-10-23T02:24:04;1.38;;;0.70;;
23280;SDS011;11809;56.390;-3.266;2022-10-23T02:26:36;3.25;;;0.75;;
23280;SDS011;11809;56.390;-3.266;2022-10-23T02:29:13;1.58;;;0.90;;
23280;SDS011;11809;56.390;-3.266;2022-10-23T02:31:46;1.75;;;1.00;;
23280;SDS011;11809;56.390;-3.266;2022-10-23T02:34:13;1.42;;;0.68;;
23280;SDS011;11809;56.390;-3.266;2022-10-23T02:36:40;1.85;;;0.88;;
23280;SDS011;11809;56.390;-3.266;2022-10-23T02:39:07;1.38;;;0.88;;
23280;SDS011;11809;56.390;-3.266;2022-10-23T02:44:24;1.02;;;0.70;;
23280;SDS011;11809;56.390;-3.266;2022-10-23T02:52:27;1.63;;;0.70;;
23280;SDS011;11809;56.390;-3.266;2022-10-23T03:00:36;2.33;;;0.98;;
23280;SDS011;11809;56.390;-3.266;2022-10-23T03:03:12;3.03;;;0.88;;
23280;SDS011;11809;56.390;-3.266;2022-10-23T03:05:45;2.03;;;1.20;;
23280;SDS011;11809;56.390;-3.266;2022-10-23T03:08:13;2.00;;;0.80;;
23280;SDS011;11809;56.390;-3.266;2022-10-23T03:10:41;2.00;;;1.00;;
23280;SDS011;11809;56.390;-3.266;2022-10-23T03:13:09;2.63;;;0.80;;
23280;SDS011;11809;56.390;-3.266;2022-10-23T03:15:36;1.50;;;0.82;;
23280;SDS011;11809;56.390;-3.266;2022-10-23T03:18:03;1.02;;;0.70;;
23280;SDS011;11809;56.390;-3.266;2022-10-23T03:20:30;1.27;;;0.80;;
23280;SDS011;11809;56.390;-3.266;2022-10-23T03:22:57;1.60;;;0.90;;
23280;SDS011;11809;56.390;-3.266;2022-10-23T03:25:24;2.80;;;0.90;;
23280;SDS011;11809;56.390;-3.266;2022-10-23T03:27:51;2.00;;;1.00;;
23280;SDS011;11809;56.390;-3.266;2022-10-23T03:30:18;2.38;;;0.80;;
23280;SDS011;11809;56.390;-3.266;2022-10-23T03:32:45;1.48;;;0.90;;
23280;SDS011;11809;56.390;-3.266;2022-10-23T03:35:12;2.33;;;0.90;;
23280;SDS011;11809;56.390;-3.266;2022-10-23T03:37:38;1.35;;;0.85;;
23280;SDS011;11809;56.390;-3.266;2022-10-23T03:40:06;2.15;;;0.90;;
23280;SDS011;11809;56.390;-3.266;2022-10-23T03:42:33;1.63;;;0.95;;
23280;SDS011;11809;56.390;-3.266;2022-10-23T03:45:00;1.83;;;1.00;;
23280;SDS011;11809;56.390;-3.266;2022-10-23T03:47:27;1.40;;;0.75;;
23280;SDS011;11809;56.390;-3.266;2022-10-23T03:49:55;1.60;;;0.90;;
23280;SDS011;11809;56.390;-3.266;2022-10-23T03:52:22;2.25;;;1.00;;
23280;SDS011;11809;56.390;-3.266;2022-10-23T03:55:09;1.45;;;0.80;;
23280;SDS011;11809;56.390;-3.266;2022-10-23T03:57:37;3.13;;;1.25;;
23280;SDS011;11809;56.390;-3.266;2022-10-23T04:00:04;1.30;;;0.90;;
23280;SDS011;11809;56.390;-3.266;2022-10-23T04:02:32;2.40;;;1.10;;
23280;SDS011;11809;56.390;-3.266;2022-10-23T04:04:59;3.65;;;0.90;;
23280;SDS011;11809;56.390;-3.266;2022-10-23T04:07:26;3.05;;;0.80;;
23280;SDS011;11809;56.390;-3.266;2022-10-23T04:09:52;1.25;;;0.90;;
23280;SDS011;11809;56.390;-3.266;2022-10-23T04:12:19;2.60;;;0.77;;
23280;SDS011;11809;56.390;-3.266;2022-10-23T04:14:46;1.15;;;0.60;;
23280;SDS011;11809;56.390;-3.266;2022-10-23T04:17:13;2.63;;;1.00;;
23280;SDS011;11809;56.390;-3.266;2022-10-23T04:19:40;2.55;;;0.90;;
23280;SDS011;11809;56.390;-3.266;2022-10-23T04:22:07;3.60;;;0.98;;
23280;SDS011;11809;56.390;-3.266;2022-10-23T04:24:34;1.92;;;1.10;;
23280;SDS011;11809;56.390;-3.266;2022-10-23T04:27:00;1.25;;;0.70;;
23280;SDS011;11809;56.390;-3.266;2022-10-23T04:29:27;2.05;;;0.90;;
23280;SDS011;11809;56.390;-3.266;2022-10-23T04:31:57;2.35;;;0.82;;
23280;SDS011;11809;56.390;-3.266;2022-10-23T04:34:24;1.30;;;0.82;;
23280;SDS011;11809;56.390;-3.266;2022-10-23T04:36:50;1.88;;;0.90;;
23280;SDS011;11809;56.390;-3.266;2022-10-23T04:39:17;2.58;;;0.90;;
23280;SDS011;11809;56.390;-3.266;2022-10-23T04:41:44;2.35;;;0.90;;
23280;SDS011;11809;56.390;-3.266;2022-10-23T04:44:11;2.13;;;1.00;;
23280;SDS011;11809;56.390;-3.266;2022-10-23T04:46:38;2.08;;;0.80;;
23280;SDS011;11809;56.390;-3.266;2022-10-23T04:49:05;0.93;;;0.63;;
23280;SDS011;11809;56.390;-3.266;2022-10-23T04:51:32;3.35;;;0.80;;
23280;SDS011;11809;56.390;-3.266;2022-10-23T04:53:59;1.00;;;0.80;;
23280;SDS011;11809;56.390;-3.266;2022-10-23T04:56:25;1.75;;;1.00;;
23280;SDS011;11809;56.390;-3.266;2022-10-23T04:58:52;1.60;;;0.93;;
23280;SDS011;11809;56.390;-3.266;2022-10-23T05:01:20;2.42;;;0.80;;
23280;SDS011;11809;56.390;-3.266;2022-10-23T05:03:47;1.38;;;0.73;;
23280;SDS011;11809;56.390;-3.266;2022-10-23T05:06:14;3.00;;;0.80;;
23280;SDS011;11809;56.390;-3.266;2022-10-23T05:08:41;1.40;;;0.80;;
23280;SDS011;11809;56.390;-3.266;2022-10-23T05:11:07;2.28;;;0.90;;
23280;SDS011;11809;56.390;-3.266;2022-10-23T05:13:34;1.73;;;1.13;;
23280;SDS011;11809;56.390;-3.266;2022-10-23T05:16:01;1.77;;;0.80;;
23280;SDS011;11809;56.390;-3.266;2022-10-23T05:18:30;1.52;;;0.70;;
23280;SDS011;11809;56.390;-3.266;2022-10-23T05:21:20;1.67;;;0.80;;
23280;SDS011;11809;56.390;-3.266;2022-10-23T05:23:53;1.92;;;0.77;;
23280;SDS011;11809;56.390;-3.266;2022-10-23T05:26:20;1.42;;;0.70;;
23280;SDS011;11809;56.390;-3.266;2022-10-23T05:28:47;2.72;;;0.80;;
23280;SDS011;11809;56.390;-3.266;2022-10-23T05:31:14;1.88;;;0.90;;
23280;SDS011;11809;56.390;-3.266;2022-10-23T05:33:43;1.63;;;0.88;;
23280;SDS011;11809;56.390;-3.266;2022-10-23T05:36:10;1.75;;;0.73;;
23280;SDS011;11809;56.390;-3.266;2022-10-23T05:38:39;2.00;;;0.95;;
23280;SDS011;11809;56.390;-3.266;2022-10-23T05:41:06;1.13;;;0.80;;
23280;SDS011;11809;56.390;-3.266;2022-10-23T05:43:33;2.63;;;0.70;;
23280;SDS011;11809;56.390;-3.266;2022-10-23T05:46:02;2.55;;;1.13;;
23280;SDS011;11809;56.390;-3.266;2022-10-23T05:48:31;1.48;;;0.98;;
23280;SDS011;11809;56.390;-3.266;2022-10-23T05:51:01;2.17;;;0.82;;
23280;SDS011;11809;56.390;-3.266;2022-10-23T05:53:29;2.33;;;0.70;;
23280;SDS011;11809;56.390;-3.266;2022-10-23T05:56:02;2.22;;;0.80;;
23280;SDS011;11809;56.390;-3.266;2022-10-23T05:58:32;2.15;;;0.80;;
23280;SDS011;11809;56.390;-3.266;2022-10-23T06:01:03;1.38;;;0.70;;
23280;SDS011;11809;56.390;-3.266;2022-10-23T06:03:32;2.70;;;0.80;;
23280;SDS011;11809;56.390;-3.266;2022-10-23T06:05:59;1.40;;;0.93;;
23280;SDS011;11809;56.390;-3.266;2022-10-23T06:08:25;2.35;;;0.98;;
23280;SDS011;11809;56.390;-3.266;2022-10-23T06:10:52;1.63;;;0.80;;
23280;SDS011;11809;56.390;-3.266;2022-10-23T06:13:19;1.13;;;0.65;;
23280;SDS011;11809;56.390;-3.266;2022-10-23T06:15:46;2.72;;;0.80;;
23280;SDS011;11809;56.390;-3.266;2022-10-23T06:18:14;10.05;;;0.90;;
23280;SDS011;11809;56.390;-3.266;2022-10-23T06:20:41;2.33;;;0.65;;
23280;SDS011;11809;56.390;-3.266;2022-10-23T06:23:08;2.38;;;0.90;;
23280;SDS011;11809;56.390;-3.266;2022-10-23T06:25:35;3.15;;;0.88;;
23280;SDS011;11809;56.390;-3.266;2022-10-23T06:28:02;1.23;;;0.70;;
23280;SDS011;11809;56.390;-3.266;2022-10-23T06:30:28;1.88;;;0.75;;
23280;SDS011;11809;56.390;-3.266;2022-10-23T06:32:55;1.23;;;0.70;;
23280;SDS011;11809;56.390;-3.266;2022-10-23T06:35:22;2.33;;;0.80;;
23280;SDS011;11809;56.390;-3.266;2022-10-23T06:37:49;1.17;;;0.70;;
23280;SDS011;11809;56.390;-3.266;2022-10-23T06:40:16;3.08;;;0.90;;
23280;SDS011;11809;56.390;-3.266;2022-10-23T06:42:43;2.10;;;1.02;;
23280;SDS011;11809;56.390;-3.266;2022-10-23T06:45:10;2.70;;;0.90;;
23280;SDS011;11809;56.390;-3.266;2022-10-23T06:47:37;1.27;;;0.80;;
23280;SDS011;11809;56.390;-3.266;2022-10-23T06:50:04;0.98;;;0.70;;
23280;SDS011;11809;56.390;-3.266;2022-10-23T06:52:31;1.38;;;0.68;;
23280;SDS011;11809;56.390;-3.266;2022-10-23T06:55:12;2.97;;;1.25;;
23280;SDS011;11809;56.390;-3.266;2022-10-23T06:57:39;2.58;;;1.15;;
23280;SDS011;11809;56.390;-3.266;2022-10-23T07:00:06;2.50;;;0.90;;
23280;SDS011;11809;56.390;-3.266;2022-10-23T07:02:34;1.15;;;0.63;;
23280;SDS011;11809;56.390;-3.266;2022-10-23T07:05:01;1.73;;;0.85;;
23280;SDS011;11809;56.390;-3.266;2022-10-23T07:07:29;1.05;;;0.70;;
23280;SDS011;11809;56.390;-3.266;2022-10-23T07:09:56;1.45;;;0.70;;
23280;SDS011;11809;56.390;-3.266;2022-10-23T07:12:23;3.25;;;0.80;;
23280;SDS011;11809;56.390;-3.266;2022-10-23T07:14:50;1.27;;;0.80;;
23280;SDS011;11809;56.390;-3.266;2022-10-23T07:17:17;7.05;;;1.30;;
23280;SDS011;11809;56.390;-3.266;2022-10-23T07:19:44;2.58;;;0.95;;
23280;SDS011;11809;56.390;-3.266;2022-10-23T07:22:12;3.58;;;1.00;;
23280;SDS011;11809;56.390;-3.266;2022-10-23T07:24:41;2.40;;;1.00;;
23280;SDS011;11809;56.390;-3.266;2022-10-23T07:27:08;5.38;;;0.90;;
23280;SDS011;11809;56.390;-3.266;2022-10-23T07:29:35;1.85;;;1.08;;
23280;SDS011;11809;56.390;-3.266;2022-10-23T07:32:02;3.58;;;0.82;;
23280;SDS011;11809;56.390;-3.266;2022-10-23T07:34:30;5.50;;;1.17;;
23280;SDS011;11809;56.390;-3.266;2022-10-23T07:36:57;2.25;;;0.80;;
23280;SDS011;11809;56.390;-3.266;2022-10-23T07:39:24;2.35;;;1.08;;
23280;SDS011;11809;56.390;-3.266;2022-10-23T07:41:51;1.88;;;0.80;;
23280;SDS011;11809;56.390;-3.266;2022-10-23T07:44:18;3.95;;;1.13;;
23280;SDS011;11809;56.390;-3.266;2022-10-23T07:46:49;1.27;;;0.85;;
23280;SDS011;11809;56.390;-3.266;2022-10-23T07:49:16;2.50;;;1.05;;
23280;SDS011;11809;56.390;-3.266;2022-10-23T07:51:43;3.15;;;0.90;;
23280;SDS011;11809;56.390;-3.266;2022-10-23T07:54:16;1.65;;;0.95;;
23280;SDS011;11809;56.390;-3.266;2022-10-23T07:56:43;3.00;;;0.85;;
23280;SDS011;11809;56.390;-3.266;2022-10-23T07:59:11;1.45;;;1.02;;
23280;SDS011;11809;56.390;-3.266;2022-10-23T08:01:38;3.08;;;0.88;;
23280;SDS011;11809;56.390;-3.266;2022-10-23T08:04:08;4.28;;;1.05;;
23280;SDS011;11809;56.390;-3.266;2022-10-23T08:06:36;1.25;;;0.88;;
23280;SDS011;11809;56.390;-3.266;2022-10-23T08:09:03;1.65;;;1.05;;
23280;SDS011;11809;56.390;-3.266;2022-10-23T08:11:32;3.17;;;1.00;;
23280;SDS011;11809;56.390;-3.266;2022-10-23T08:14:02;1.77;;;1.00;;
23280;SDS011;11809;56.390;-3.266;2022-10-23T08:16:34;8.70;;;1.15;;
23280;SDS011;11809;56.390;-3.266;2022-10-23T08:19:03;3.08;;;1.00;;
23280;SDS011;11809;56.390;-3.266;2022-10-23T08:21:32;6.13;;;1.00;;
23280;SDS011;11809;56.390;-3.266;2022-10-23T08:23:59;4.13;;;1.13;;
23280;SDS011;11809;56.390;-3.266;2022-10-23T08:26:27;3.30;;;0.85;;
23280;SDS011;11809;56.390;-3.266;2022-10-23T08:28:57;2.65;;;1.10;;
23280;SDS011;11809;56.390;-3.266;2022-10-23T08:31:26;4.72;;;1.50;;
23280;SDS011;11809;56.390;-3.266;2022-10-23T08:33:53;2.17;;;1.00;;
23280;SDS011;11809;56.390;-3.266;2022-10-23T08:36:21;3.03;;;1.10;;
23280;SDS011;11809;56.390;-3.266;2022-10-23T08:38:50;4.97;;;1.30;;
23280;SDS011;11809;56.390;-3.266;2022-10-23T08:41:25;5.20;;;1.40;;
23280;SDS011;11809;56.390;-3.266;2022-10-23T08:44:06;3.92;;;1.40;;
23280;SDS011;11809;56.390;-3.266;2022-10-23T08:58:21;2.72;;;1.10;;
23280;SDS011;11809;56.390;-3.266;2022-10-23T09:01:21;2.85;;;1.50;;
23280;SDS011;11809;56.390;-3.266;2022-10-23T09:03:49;3.75;;;1.23;;
23280;SDS011;11809;56.390;-3.266;2022-10-23T09:22:27;4.68;;;1.85;;
23280;SDS011;11809;56.390;-3.266;2022-10-23T09:24:54;6.00;;;2.05;;
23280;SDS011;11809;56.390;-3.266;2022-10-23T09:27:22;8.95;;;2.08;;
23280;SDS011;11809;56.390;-3.266;2022-10-23T09:29:50;7.80;;;2.13;;
23280;SDS011;11809;56.390;-3.266;2022-10-23T09:32:31;5.70;;;1.88;;
23280;SDS011;11809;56.390;-3.266;2022-10-23T09:34:59;3.95;;;1.85;;
23280;SDS011;11809;56.390;-3.266;2022-10-23T09:37:28;2.90;;;1.88;;
23280;SDS011;11809;56.390;-3.266;2022-10-23T09:40:00;4.13;;;2.22;;
23280;SDS011;11809;56.390;-3.266;2022-10-23T09:42:37;7.30;;;1.80;;
23280;SDS011;11809;56.390;-3.266;2022-10-23T09:45:26;7.72;;;2.22;;
23280;SDS011;11809;56.390;-3.266;2022-10-23T09:48:04;8.65;;;2.22;;
23280;SDS011;11809;56.390;-3.266;2022-10-23T09:50:32;8.32;;;2.60;;
23280;SDS011;11809;56.390;-3.266;2022-10-23T09:52:59;7.57;;;2.45;;
23280;SDS011;11809;56.390;-3.266;2022-10-23T09:55:26;5.45;;;2.30;;
23280;SDS011;11809;56.390;-3.266;2022-10-23T09:57:53;4.03;;;1.95;;
23280;SDS011;11809;56.390;-3.266;2022-10-23T10:00:22;6.18;;;2.60;;
23280;SDS011;11809;56.390;-3.266;2022-10-23T10:03:24;5.53;;;1.80;;
23280;SDS011;11809;56.390;-3.266;2022-10-23T10:05:52;7.57;;;2.30;;
23280;SDS011;11809;56.390;-3.266;2022-10-23T10:11:11;6.53;;;2.33;;
23280;SDS011;11809;56.390;-3.266;2022-10-23T10:13:55;6.30;;;2.95;;
23280;SDS011;11809;56.390;-3.266;2022-10-23T10:16:29;8.73;;;2.80;;
23280;SDS011;11809;56.390;-3.266;2022-10-23T10:22:15;9.60;;;2.00;;
23280;SDS011;11809;56.390;-3.266;2022-10-23T10:35:42;7.45;;;2.33;;
23280;SDS011;11809;56.390;-3.266;2022-10-23T10:38:41;7.35;;;2.40;;
23280;SDS011;11809;56.390;-3.266;2022-10-23T10:46:57;3.28;;;1.70;;
23280;SDS011;11809;56.390;-3.266;2022-10-23T10:55:18;2.78;;;1.52;;
23280;SDS011;11809;56.390;-3.266;2022-10-23T10:58:01;4.25;;;1.67;;
23280;SDS011;11809;56.390;-3.266;2022-10-23T11:00:32;4.25;;;1.67;;
23280;SDS011;11809;56.390;-3.266;2022-10-23T11:03:00;3.58;;;1.65;;
23280;SDS011;11809;56.390;-3.266;2022-10-23T11:05:41;4.63;;;1.60;;
23280;SDS011;11809;56.390;-3.266;2022-10-23T11:10:43;5.05;;;1.70;;
23280;SDS011;11809;56.390;-3.266;2022-10-23T11:16:09;2.22;;;1.50;;
23280;SDS011;11809;56.390;-3.266;2022-10-23T11:18:38;4.22;;;1.52;;
23280;SDS011;11809;56.390;-3.266;2022-10-23T11:21:16;2.63;;;1.70;;
23280;SDS011;11809;56.390;-3.266;2022-10-23T11:41:15;4.60;;;1.73;;
23280;SDS011;11809;56.390;-3.266;2022-10-23T11:43:49;4.85;;;2.25;;
23280;SDS011;11809;56.390;-3.266;2022-10-23T11:49:00;3.78;;;2.00;;
23280;SDS011;11809;56.390;-3.266;2022-10-23T12:05:00;13.90;;;3.25;;
23280;SDS011;11809;56.390;-3.266;2022-10-23T12:07:52;13.90;;;3.85;;
23280;SDS011;11809;56.390;-3.266;2022-10-23T12:10:54;16.48;;;5.05;;
23280;SDS011;11809;56.390;-3.266;2022-10-23T12:16:03;17.23;;;4.53;;
23280;SDS011;11809;56.390;-3.266;2022-10-23T12:18:43;11.43;;;4.32;;
23280;SDS011;11809;56.390;-3.266;2022-10-23T12:21:22;15.98;;;4.40;;
23280;SDS011;11809;56.390;-3.266;2022-10-23T12:23:58;9.82;;;4.20;;
23280;SDS011;11809;56.390;-3.266;2022-10-23T12:32:15;12.48;;;5.32;;
23280;SDS011;11809;56.390;-3.266;2022-10-23T12:40:07;9.65;;;5.32;;
23280;SDS011;11809;56.390;-3.266;2022-10-23T12:42:36;9.63;;;5.13;;
23280;SDS011;11809;56.390;-3.266;2022-10-23T12:47:31;10.57;;;5.85;;
23280;SDS011;11809;56.390;-3.266;2022-10-23T12:49:58;12.38;;;5.78;;
23280;SDS011;11809;56.390;-3.266;2022-10-23T12:52:25;13.30;;;5.60;;
23280;SDS011;11809;56.390;-3.266;2022-10-23T12:54:52;8.77;;;5.40;;
23280;SDS011;11809;56.390;-3.266;2022-10-23T12:57:24;13.57;;;5.45;;
23280;SDS011;11809;56.390;-3.266;2022-10-23T12:59:56;8.75;;;5.25;;
23280;SDS011;11809;56.390;-3.266;2022-10-23T13:02:28;6.57;;;5.00;;
23280;SDS011;11809;56.390;-3.266;2022-10-23T13:04:59;8.07;;;5.15;;
23280;SDS011;11809;56.390;-3.266;2022-10-23T13:07:28;8.07;;;4.63;;
23280;SDS011;11809;56.390;-3.266;2022-10-23T13:09:57;8.70;;;5.00;;
23280;SDS011;11809;56.390;-3.266;2022-10-23T13:12:29;6.25;;;4.80;;
23280;SDS011;11809;56.390;-3.266;2022-10-23T13:15:17;7.18;;;4.60;;
23280;SDS011;11809;56.390;-3.266;2022-10-23T13:17:47;8.02;;;4.57;;
23280;SDS011;11809;56.390;-3.266;2022-10-23T13:20:27;7.70;;;4.70;;
23280;SDS011;11809;56.390;-3.266;2022-10-23T13:25:38;9.98;;;5.05;;
23280;SDS011;11809;56.390;-3.266;2022-10-23T13:28:19;6.97;;;5.75;;
23280;SDS011;11809;56.390;-3.266;2022-10-23T13:30:58;6.65;;;5.82;;
23280;SDS011;11809;56.390;-3.266;2022-10-23T13:38:35;8.35;;;6.22;;
23280;SDS011;11809;56.390;-3.266;2022-10-23T13:41:03;9.95;;;7.40;;
23280;SDS011;11809;56.390;-3.266;2022-10-23T13:43:32;9.48;;;6.97;;
23280;SDS011;11809;56.390;-3.266;2022-10-23T13:46:14;14.52;;;7.22;;
23280;SDS011;11809;56.390;-3.266;2022-10-23T13:48:43;8.60;;;6.80;;
23280;SDS011;11809;56.390;-3.266;2022-10-23T13:51:13;9.90;;;7.05;;
23280;SDS011;11809;56.390;-3.266;2022-10-23T13:53:42;9.95;;;7.63;;
23280;SDS011;11809;56.390;-3.266;2022-10-23T13:56:12;11.45;;;7.65;;
23280;SDS011;11809;56.390;-3.266;2022-10-23T13:58:40;18.60;;;6.82;;
23280;SDS011;11809;56.390;-3.266;2022-10-23T14:03:52;11.27;;;7.18;;
23280;SDS011;11809;56.390;-3.266;2022-10-23T14:06:20;10.32;;;7.68;;
23280;SDS011;11809;56.390;-3.266;2022-10-23T14:08:47;12.23;;;7.35;;
23280;SDS011;11809;56.390;-3.266;2022-10-23T14:11:15;17.98;;;7.95;;
23280;SDS011;11809;56.390;-3.266;2022-10-23T14:13:44;10.65;;;7.30;;
23280;SDS011;11809;56.390;-3.266;2022-10-23T14:16:12;12.15;;;7.03;;
23280;SDS011;11809;56.390;-3.266;2022-10-23T14:18:41;11.45;;;7.07;;
23280;SDS011;11809;56.390;-3.266;2022-10-23T14:21:09;12.27;;;7.45;;
23280;SDS011;11809;56.390;-3.266;2022-10-23T14:23:38;11.48;;;7.13;;
23280;SDS011;11809;56.390;-3.266;2022-10-23T14:26:09;10.27;;;6.60;;
23280;SDS011;11809;56.390;-3.266;2022-10-23T14:28:38;16.98;;;7.13;;
23280;SDS011;11809;56.390;-3.266;2022-10-23T14:31:23;14.80;;;6.60;;
23280;SDS011;11809;56.390;-3.266;2022-10-23T14:33:52;13.45;;;6.82;;
23280;SDS011;11809;56.390;-3.266;2022-10-23T14:36:21;9.13;;;5.97;;
23280;SDS011;11809;56.390;-3.266;2022-10-23T14:38:49;12.18;;;5.95;;
23280;SDS011;11809;56.390;-3.266;2022-10-23T14:41:21;11.05;;;6.03;;
23280;SDS011;11809;56.390;-3.266;2022-10-23T14:43:48;22.30;;;6.25;;
23280;SDS011;11809;56.390;-3.266;2022-10-23T14:46:16;9.27;;;6.15;;
23280;SDS011;11809;56.390;-3.266;2022-10-23T14:48:45;13.20;;;6.22;;
23280;SDS011;11809;56.390;-3.266;2022-10-23T14:51:22;12.77;;;5.78;;
23280;SDS011;11809;56.390;-3.266;2022-10-23T14:53:54;9.23;;;5.32;;
23280;SDS011;11809;56.390;-3.266;2022-10-23T14:56:25;8.48;;;5.85;;
23280;SDS011;11809;56.390;-3.266;2022-10-23T14:58:52;12.30;;;5.43;;
23280;SDS011;11809;56.390;-3.266;2022-10-23T15:01:19;17.35;;;6.22;;
23280;SDS011;11809;56.390;-3.266;2022-10-23T15:03:46;11.75;;;5.90;;
23280;SDS011;11809;56.390;-3.266;2022-10-23T15:06:20;8.18;;;5.85;;
23280;SDS011;11809;56.390;-3.266;2022-10-23T15:08:50;7.20;;;5.22;;
23280;SDS011;11809;56.390;-3.266;2022-10-23T15:11:20;19.65;;;5.70;;
23280;SDS011;11809;56.390;-3.266;2022-10-23T15:13:47;7.45;;;5.22;;
23280;SDS011;11809;56.390;-3.266;2022-10-23T15:16:15;9.52;;;5.30;;
23280;SDS011;11809;56.390;-3.266;2022-10-23T15:18:42;7.43;;;4.88;;
23280;SDS011;11809;56.390;-3.266;2022-10-23T15:21:09;5.65;;;4.20;;
23280;SDS011;11809;56.390;-3.266;2022-10-23T15:23:39;9.98;;;4.82;;
23280;SDS011;11809;56.390;-3.266;2022-10-23T15:26:08;5.50;;;4.22;;
23280;SDS011;11809;56.390;-3.266;2022-10-23T15:28:55;5.60;;;4.70;;
23280;SDS011;11809;56.390;-3.266;2022-10-23T15:34:03;10.45;;;4.50;;
23280;SDS011;11809;56.390;-3.266;2022-10-23T15:36:31;7.28;;;4.40;;
23280;SDS011;11809;56.390;-3.266;2022-10-23T15:38:59;8.32;;;4.30;;
23280;SDS011;11809;56.390;-3.266;2022-10-23T15:41:30;6.53;;;4.00;;
23280;SDS011;11809;56.390;-3.266;2022-10-23T15:43:59;3.90;;;3.60;;
23280;SDS011;11809;56.390;-3.266;2022-10-23T15:46:28;4.55;;;3.63;;
23280;SDS011;11809;56.390;-3.266;2022-10-23T15:48:55;5.38;;;4.00;;
23280;SDS011;11809;56.390;-3.266;2022-10-23T15:51:22;4.28;;;3.75;;
23280;SDS011;11809;56.390;-3.266;2022-10-23T15:53:49;5.72;;;3.88;;
23280;SDS011;11809;56.390;-3.266;2022-10-23T15:56:16;4.68;;;3.85;;
23280;SDS011;11809;56.390;-3.266;2022-10-23T15:58:43;4.20;;;3.80;;
23280;SDS011;11809;56.390;-3.266;2022-10-23T16:01:10;6.25;;;3.83;;
23280;SDS011;11809;56.390;-3.266;2022-10-23T16:03:38;7.95;;;3.83;;
23280;SDS011;11809;56.390;-3.266;2022-10-23T16:06:06;6.00;;;4.00;;
23280;SDS011;11809;56.390;-3.266;2022-10-23T16:08:35;4.88;;;3.80;;
23280;SDS011;11809;56.390;-3.266;2022-10-23T16:11:03;4.93;;;4.28;;
23280;SDS011;11809;56.390;-3.266;2022-10-23T16:13:38;4.40;;;3.53;;
23280;SDS011;11809;56.390;-3.266;2022-10-23T16:16:05;43.47;;;18.50;;
23280;SDS011;11809;56.390;-3.266;2022-10-23T16:18:32;164.05;;;75.35;;
23280;SDS011;11809;56.390;-3.266;2022-10-23T16:20:59;128.50;;;58.65;;
23280;SDS011;11809;56.390;-3.266;2022-10-23T16:23:26;104.55;;;45.05;;
23280;SDS011;11809;56.390;-3.266;2022-10-23T16:25:53;81.13;;;39.72;;
23280;SDS011;11809;56.390;-3.266;2022-10-23T16:28:20;79.95;;;36.53;;
23280;SDS011;11809;56.390;-3.266;2022-10-23T16:30:47;69.40;;;33.63;;
23280;SDS011;11809;56.390;-3.266;2022-10-23T16:33:14;63.80;;;31.88;;
23280;SDS011;11809;56.390;-3.266;2022-10-23T16:35:41;58.80;;;28.63;;
23280;SDS011;11809;56.390;-3.266;2022-10-23T16:38:09;54.80;;;26.55;;
23280;SDS011;11809;56.390;-3.266;2022-10-23T16:40:36;54.40;;;26.67;;
23280;SDS011;11809;56.390;-3.266;2022-10-23T16:43:03;42.50;;;22.50;;
23280;SDS011;11809;56.390;-3.266;2022-10-23T16:45:31;40.67;;;18.73;;
23280;SDS011;11809;56.390;-3.266;2022-10-23T16:48:03;35.30;;;16.73;;
23280;SDS011;11809;56.390;-3.266;2022-10-23T16:50:30;31.27;;;15.25;;
23280;SDS011;11809;56.390;-3.266;2022-10-23T16:52:57;31.50;;;14.85;;
23280;SDS011;11809;56.390;-3.266;2022-10-23T16:55:24;28.17;;;14.07;;
23280;SDS011;11809;56.390;-3.266;2022-10-23T16:57:52;23.88;;;12.77;;
23280;SDS011;11809;56.390;-3.266;2022-10-23T17:00:19;24.90;;;12.10;;
23280;SDS011;11809;56.390;-3.266;2022-10-23T17:02:48;21.38;;;11.45;;
23280;SDS011;11809;56.390;-3.266;2022-10-23T17:05:15;21.25;;;11.65;;
23280;SDS011;11809;56.390;-3.266;2022-10-23T17:07:42;18.35;;;10.15;;
23280;SDS011;11809;56.390;-3.266;2022-10-23T17:10:10;17.85;;;10.10;;
23280;SDS011;11809;56.390;-3.266;2022-10-23T17:12:37;18.15;;;8.93;;
23280;SDS011;11809;56.390;-3.266;2022-10-23T17:15:04;13.05;;;7.68;;
23280;SDS011;11809;56.390;-3.266;2022-10-23T17:17:31;13.23;;;7.07;;
23280;SDS011;11809;56.390;-3.266;2022-10-23T17:19:58;10.02;;;6.55;;
23280;SDS011;11809;56.390;-3.266;2022-10-23T17:22:25;11.30;;;6.38;;
23280;SDS011;11809;56.390;-3.266;2022-10-23T17:24:53;11.68;;;6.13;;